createdAt,value
2022-09-18T00:00:07.807Z,983.6
2022-09-18T00:02:08.934Z,983.5
2022-09-18T00:04:09.879Z,983.5
2022-09-18T00:06:11.638Z,983.6
2022-09-18T00:08:13.157Z,983.6
2022-09-18T00:10:14.798Z,983.7
2022-09-18T00:12:16.544Z,983.6
2022-09-18T00:14:17.625Z,983.6
2022-09-18T00:16:19.429Z,983.6
2022-09-18T00:18:20.427Z,983.6
2022-09-18T00:20:22.167Z,983.5
2022-09-18T00:22:23.961Z,983.6
2022-09-18T00:26:26.050Z,983.6
2022-09-18T00:28:27.308Z,983.6
2022-09-18T00:30:28.567Z,983.6
2022-09-18T00:32:29.529Z,983.6
2022-09-18T00:34:31.279Z,983.6
2022-09-18T00:36:32.607Z,983.6
2022-09-18T00:38:34.693Z,983.5
2022-09-18T00:40:35.794Z,983.6
2022-09-18T00:42:37.488Z,983.5
2022-09-18T00:44:39.232Z,983.5
2022-09-18T00:46:40.915Z,983.6
2022-09-18T00:48:41.997Z,983.5
2022-09-18T00:50:43.622Z,983.4
2022-09-18T00:52:44.921Z,983.5
2022-09-18T00:54:46.742Z,983.4
2022-09-18T00:56:48.041Z,983.5
2022-09-18T00:58:49.198Z,983.5
2022-09-18T01:00:50.695Z,983.5
2022-09-18T01:02:52.535Z,983.5
2022-09-18T01:04:54.387Z,983.6
2022-09-18T01:06:56.148Z,983.5
2022-09-18T01:08:57.097Z,983.5
2022-09-18T01:10:58.246Z,983.5
2022-09-18T01:12:59.746Z,983.5
2022-09-18T01:15:01.448Z,983.5
2022-09-18T01:17:03.264Z,983.5
2022-09-18T01:19:04.517Z,983.4
2022-09-18T01:21:06.223Z,983.5
2022-09-18T01:23:07.412Z,983.5
2022-09-18T01:25:09.267Z,983.4
2022-09-18T01:27:10.358Z,983.5
2022-09-18T01:31:13.771Z,983.5
2022-09-18T01:33:15.257Z,983.4
2022-09-18T01:35:37.131Z,983.5
2022-09-18T01:37:18.451Z,983.4
2022-09-18T01:39:19.830Z,983.4
2022-09-18T01:41:21.610Z,983.5
2022-09-18T01:43:23.352Z,983.4
2022-09-18T01:45:24.798Z,983.4
2022-09-18T01:47:26.133Z,983.5
2022-09-18T01:49:27.120Z,983.4
2022-09-18T01:51:28.514Z,983.4
2022-09-18T01:53:30.493Z,983.4
2022-09-18T01:55:31.484Z,983.4
2022-09-18T01:57:33.382Z,983.4
2022-09-18T01:59:35.099Z,983.5
2022-09-18T02:01:36.457Z,983.4
2022-09-18T02:03:38.282Z,983.4
2022-09-18T02:05:39.683Z,983.4
2022-09-18T02:07:41.192Z,983.3
2022-09-18T02:09:42.655Z,983.4
2022-09-18T02:11:44.158Z,983.4
2022-09-18T02:13:45.723Z,983.4
2022-09-18T02:15:47.448Z,983.4
2022-09-18T02:17:48.943Z,983.4
2022-09-18T02:19:50.272Z,983.3
2022-09-18T02:21:51.424Z,983.4
2022-09-18T02:23:53.053Z,983.3
2022-09-18T02:25:54.045Z,983.3
2022-09-18T02:27:55.027Z,983.4
2022-09-18T02:29:56.365Z,983.3
2022-09-18T02:33:58.878Z,983.3
2022-09-18T02:36:00.831Z,983.3
2022-09-18T02:38:02.195Z,983.3
2022-09-18T02:40:03.962Z,983.3
2022-09-18T02:42:04.992Z,983.2
2022-09-18T02:44:06.824Z,983.2
2022-09-18T02:46:08.720Z,983.2
2022-09-18T02:48:10.269Z,983.2
2022-09-18T02:50:11.503Z,983.2
2022-09-18T02:52:13.304Z,983.2
2022-09-18T02:54:14.383Z,983.3
2022-09-18T02:56:16.302Z,983.2
2022-09-18T02:58:17.440Z,983.2
2022-09-18T03:00:18.920Z,983.3
2022-09-18T03:02:20.791Z,983.3
2022-09-18T03:04:21.820Z,983.3
2022-09-18T03:06:23.755Z,983.2
2022-09-18T03:08:25.444Z,983.2
2022-09-18T03:10:26.881Z,983.3
2022-09-18T03:12:28.275Z,983.3
2022-09-18T03:16:30.551Z,983.2
2022-09-18T03:18:32.435Z,983.1
2022-09-18T03:20:33.758Z,983.1
2022-09-18T03:22:35.179Z,983.1
2022-09-18T03:26:38.106Z,983.1
2022-09-18T03:28:39.128Z,983.1
2022-09-18T03:30:40.635Z,983.2
2022-09-18T03:32:41.906Z,983.1
2022-09-18T03:34:42.936Z,983.1
2022-09-18T03:36:44.327Z,983.1
2022-09-18T03:38:45.578Z,983.1
2022-09-18T03:40:47.649Z,983.2
2022-09-18T03:42:47.735Z,983.2
2022-09-18T03:44:48.800Z,983.2
2022-09-18T03:46:49.841Z,983.2
2022-09-18T03:48:51.046Z,983.2
2022-09-18T03:50:52.741Z,983.2
2022-09-18T03:52:54.009Z,983.2
2022-09-18T03:54:55.303Z,983.1
2022-09-18T03:56:56.615Z,983.2
2022-09-18T03:58:57.950Z,983.2
2022-09-18T04:00:59.304Z,983.3
2022-09-18T04:03:01.088Z,983.2
2022-09-18T04:05:02.987Z,983.3
2022-09-18T04:07:04.304Z,983.3
2022-09-18T04:09:05.518Z,983.2
2022-09-18T04:11:06.652Z,983.2
2022-09-18T04:13:08.082Z,983.2
2022-09-18T04:15:09.413Z,983.2
2022-09-18T04:17:11.325Z,983.2
2022-09-18T04:19:12.920Z,983.3
2022-09-18T04:21:13.876Z,983.2
2022-09-18T04:23:15.470Z,983.2
2022-09-18T04:25:16.759Z,983.2
2022-09-18T04:27:18.375Z,983.4
2022-09-18T04:31:21.701Z,983.3
2022-09-18T04:33:23.299Z,983.2
2022-09-18T04:35:24.334Z,983.2
2022-09-18T04:37:25.957Z,983.2
2022-09-18T04:39:27.045Z,983.2
2022-09-18T04:41:28.725Z,983.2
2022-09-18T04:46:15.415Z,983.3
2022-09-18T04:48:16.667Z,983.3
2022-09-18T04:50:17.858Z,983.3
2022-09-18T04:54:20.498Z,983.3
2022-09-18T04:56:21.567Z,983.3
2022-09-18T04:58:23.153Z,983.3
2022-09-18T05:00:24.223Z,983.4
2022-09-18T05:02:25.575Z,983.3
2022-09-18T05:04:26.801Z,983.3
2022-09-18T05:06:28.608Z,983.2
2022-09-18T05:10:32.310Z,983.3
2022-09-18T05:12:33.894Z,983.3
2022-09-18T05:14:35.361Z,983.4
2022-09-18T05:16:36.936Z,983.4
2022-09-18T05:18:38.187Z,983.5
2022-09-18T05:20:39.910Z,983.3
2022-09-18T05:22:41.808Z,983.4
2022-09-18T05:24:43.170Z,983.4
2022-09-18T05:26:44.731Z,983.3
2022-09-18T05:28:46.446Z,983.4
2022-09-18T05:30:47.458Z,983.4
2022-09-18T05:32:48.966Z,983.5
2022-09-18T05:34:50.766Z,983.4
2022-09-18T05:36:52.208Z,983.4
2022-09-18T05:38:53.196Z,983.5
2022-09-18T05:40:54.809Z,983.4
2022-09-18T05:42:55.821Z,983.4
2022-09-18T05:44:59.881Z,983.4
2022-09-18T05:46:58.794Z,983.4
2022-09-18T05:49:00.367Z,983.3
2022-09-18T05:51:01.494Z,983.4
2022-09-18T05:53:02.462Z,983.5
2022-09-18T05:55:03.969Z,983.4
2022-09-18T05:57:05.227Z,983.4
2022-09-18T05:59:06.807Z,983.5
2022-09-18T06:01:08.035Z,983.6
2022-09-18T06:03:09.123Z,983.5
2022-09-18T06:05:10.259Z,983.5
2022-09-18T06:07:11.342Z,983.5
2022-09-18T06:09:12.812Z,983.5
2022-09-18T06:11:14.100Z,983.4
2022-09-18T06:13:15.324Z,983.5
2022-09-18T06:15:17.020Z,983.6
2022-09-18T06:17:18.701Z,983.6
2022-09-18T06:19:20.257Z,983.5
2022-09-18T06:21:21.538Z,983.5
2022-09-18T06:23:23.060Z,983.6
2022-09-18T06:25:24.102Z,983.5
2022-09-18T06:29:26.389Z,983.6
2022-09-18T06:31:27.940Z,983.7
2022-09-18T06:35:30.146Z,983.5
2022-09-18T06:37:31.981Z,983.6
2022-09-18T06:39:33.406Z,983.6
2022-09-18T06:41:34.740Z,983.6
2022-09-18T06:43:35.962Z,983.6
2022-09-18T06:45:36.843Z,983.6
2022-09-18T06:47:38.190Z,983.5
2022-09-18T06:49:39.735Z,983.7
2022-09-18T06:51:40.740Z,983.6
2022-09-18T06:53:42.357Z,983.7
2022-09-18T06:55:43.501Z,983.7
2022-09-18T06:57:44.414Z,983.6
2022-09-18T06:59:45.600Z,983.7
2022-09-18T07:01:46.771Z,983.7
2022-09-18T07:03:48.619Z,983.7
2022-09-18T07:05:49.891Z,983.6
2022-09-18T07:07:51.593Z,983.7
2022-09-18T07:09:52.905Z,983.6
2022-09-18T07:11:54.834Z,983.6
2022-09-18T07:13:56.748Z,983.7
2022-09-18T07:15:58.300Z,983.7
2022-09-18T07:17:59.834Z,983.7
2022-09-18T07:20:01.693Z,983.7
2022-09-18T07:22:03.562Z,983.6
2022-09-18T07:24:05.369Z,983.7
2022-09-18T07:26:07.247Z,983.8
2022-09-18T07:28:08.509Z,983.7
2022-09-18T07:30:10.320Z,983.7
2022-09-18T07:34:13.749Z,983.7
2022-09-18T07:36:15.492Z,983.7
2022-09-18T07:38:16.716Z,983.7
2022-09-18T07:40:17.872Z,983.8
2022-09-18T07:42:18.946Z,983.8
2022-09-18T07:44:20.712Z,983.7
2022-09-18T07:46:22.525Z,983.8
2022-09-18T07:48:23.968Z,983.7
2022-09-18T07:50:25.233Z,983.7
2022-09-18T07:52:26.344Z,983.8
2022-09-18T07:54:27.319Z,983.9
2022-09-18T07:56:28.525Z,983.8
2022-09-18T07:58:30.177Z,983.8
2022-09-18T08:00:31.397Z,983.8
2022-09-18T08:02:32.588Z,983.8
2022-09-18T08:04:33.903Z,983.7
2022-09-18T08:06:35.175Z,983.9
2022-09-18T08:08:37.049Z,983.7
2022-09-18T08:10:38.500Z,983.8
2022-09-18T08:12:40.255Z,983.8
2022-09-18T08:14:41.182Z,983.8
2022-09-18T08:16:42.388Z,983.9
2022-09-18T08:18:44.284Z,983.9
2022-09-18T08:20:46.034Z,983.8
2022-09-18T08:22:47.833Z,983.8
2022-09-18T08:24:49.372Z,983.8
2022-09-18T08:26:50.935Z,983.9
2022-09-18T08:28:52.018Z,983.9
2022-09-18T08:30:53.697Z,983.9
2022-09-18T08:32:55.052Z,983.8
2022-09-18T08:34:56.736Z,983.8
2022-09-18T08:36:57.818Z,983.8
2022-09-18T08:38:59.096Z,983.9
2022-09-18T08:41:00.133Z,983.9
2022-09-18T08:45:03.461Z,983.8
2022-09-18T08:47:04.709Z,983.9
2022-09-18T08:49:05.951Z,983.8
2022-09-18T08:51:07.438Z,983.8
2022-09-18T08:53:09.187Z,983.9
2022-09-18T08:55:10.654Z,983.8
2022-09-18T08:59:13.432Z,983.8
2022-09-18T09:01:14.460Z,983.8
2022-09-18T09:03:15.910Z,983.8
2022-09-18T09:05:17.461Z,983.8
2022-09-18T09:07:18.399Z,983.8
2022-09-18T09:09:21.465Z,983.7
2022-09-18T09:11:21.145Z,983.7
2022-09-18T09:13:22.480Z,983.7
2022-09-18T09:15:23.930Z,983.7
2022-09-18T09:17:25.164Z,983.7
2022-09-18T09:19:26.203Z,983.7
2022-09-18T09:21:27.615Z,983.7
2022-09-18T09:23:29.078Z,983.8
2022-09-18T09:25:30.688Z,983.8
2022-09-18T09:27:31.833Z,983.8
2022-09-18T09:29:32.994Z,983.7
2022-09-18T09:31:34.873Z,983.7
2022-09-18T09:33:36.348Z,983.8
2022-09-18T09:35:37.455Z,983.8
2022-09-18T09:37:38.802Z,983.9
2022-09-18T09:39:40.522Z,983.8
2022-09-18T09:41:41.595Z,983.8
2022-09-18T09:43:42.737Z,983.8
2022-09-18T09:45:43.792Z,983.9
2022-09-18T09:47:44.805Z,983.8
2022-09-18T09:49:46.570Z,983.9
2022-09-18T09:51:47.874Z,983.9
2022-09-18T09:53:49.301Z,983.8
2022-09-18T09:57:52.056Z,983.6
2022-09-18T09:59:53.908Z,983.7
2022-09-18T10:01:55.365Z,983.6
2022-09-18T10:03:56.185Z,983.7
2022-09-18T10:05:57.993Z,983.7
2022-09-18T10:07:59.662Z,983.6
2022-09-18T10:10:00.902Z,983.8
2022-09-18T10:12:01.916Z,983.7
2022-09-18T10:14:03.562Z,983.7
2022-09-18T10:16:05.480Z,983.8
2022-09-18T10:18:07.039Z,983.7
2022-09-18T10:20:08.171Z,983.7
2022-09-18T10:22:09.894Z,983.7
2022-09-18T10:24:11.566Z,983.7
2022-09-18T10:26:12.956Z,983.7
2022-09-18T10:28:13.996Z,983.7
2022-09-18T10:30:15.362Z,983.7
2022-09-18T10:32:16.767Z,983.6
2022-09-18T10:34:17.801Z,983.8
2022-09-18T10:36:18.882Z,983.6
2022-09-18T10:38:20.414Z,983.6
2022-09-18T10:40:21.686Z,983.6
2022-09-18T10:42:22.916Z,983.5
2022-09-18T10:44:24.660Z,983.7
2022-09-18T10:46:26.102Z,983.6
2022-09-18T10:48:27.183Z,983.7
2022-09-18T10:50:32.475Z,983.7
2022-09-18T10:52:31.099Z,983.6
2022-09-18T10:54:32.710Z,983.7
2022-09-18T10:56:34.499Z,983.7
2022-09-18T10:58:36.147Z,983.6
2022-09-18T11:00:37.642Z,983.6
2022-09-18T11:02:39.143Z,983.6
2022-09-18T11:04:40.577Z,983.6
2022-09-18T11:06:41.861Z,983.5
2022-09-18T11:08:42.962Z,983.4
2022-09-18T11:10:44.781Z,983.5
2022-09-18T11:12:46.498Z,983.6
2022-09-18T11:16:49.654Z,983.4
2022-09-18T11:18:51.278Z,983.4
2022-09-18T11:20:53.076Z,983.3
2022-09-18T11:22:54.473Z,983.3
2022-09-18T11:24:55.693Z,983.3
2022-09-18T11:26:57.573Z,983.3
2022-09-18T11:27:41.398Z,983.3
2022-09-18T11:29:42.622Z,983.3
2022-09-18T11:31:43.966Z,983.3
2022-09-18T11:33:45.084Z,983.3
2022-09-18T11:35:46.250Z,983.3
2022-09-18T11:37:47.909Z,983.2
2022-09-18T11:39:49.296Z,983.3
2022-09-18T11:41:50.736Z,983.2
2022-09-18T11:43:51.640Z,983.2
2022-09-18T11:45:52.597Z,983.1
2022-09-18T11:47:53.890Z,983.1
2022-09-18T11:49:55.627Z,983.1
2022-09-18T11:51:57.309Z,983
2022-09-18T11:53:58.946Z,983
2022-09-18T11:56:00.027Z,983.1
2022-09-18T11:58:01.739Z,983.1
2022-09-18T12:00:03.520Z,983
2022-09-18T12:02:05.139Z,983.1
2022-09-18T12:04:05.966Z,983
2022-09-18T12:06:07.322Z,983.1
2022-09-18T12:08:06.908Z,983.1
2022-09-18T12:10:08.028Z,983.2
2022-09-18T12:12:09.023Z,983
2022-09-18T12:16:11.526Z,983
2022-09-18T12:18:12.929Z,983
2022-09-18T12:20:14.329Z,983
2022-09-18T12:22:15.408Z,983
2022-09-18T12:24:16.478Z,982.8
2022-09-18T12:26:18.073Z,982.9
2022-09-18T12:28:19.426Z,982.7
2022-09-18T12:30:21.029Z,982.9
2022-09-18T12:32:22.203Z,983
2022-09-18T12:34:23.575Z,982.9
2022-09-18T12:36:24.699Z,982.8
2022-09-18T12:38:26.425Z,983
2022-09-18T12:42:29.572Z,982.8
2022-09-18T12:44:31.285Z,982.8
2022-09-18T12:46:32.425Z,982.8
2022-09-18T12:48:33.946Z,982.6
2022-09-18T12:50:36.389Z,982.8
2022-09-18T12:52:46.738Z,982.6
2022-09-18T12:54:39.556Z,982.7
2022-09-18T12:58:42.504Z,982.7
2022-09-18T13:00:44.194Z,982.6
2022-09-18T13:02:48.090Z,982.8
2022-09-18T13:04:46.991Z,982.6
2022-09-18T13:06:48.567Z,982.8
2022-09-18T13:08:50.317Z,982.7
2022-09-18T13:10:51.761Z,982.6
2022-09-18T13:12:53.434Z,982.7
2022-09-18T13:14:55.123Z,982.8
2022-09-18T13:16:57.493Z,982.8
2022-09-18T13:18:59.332Z,982.8
2022-09-18T13:21:00.661Z,982.6
2022-09-18T13:25:03.535Z,982.7
2022-09-18T13:27:05.041Z,982.8
2022-09-18T13:29:06.238Z,982.8
2022-09-18T13:31:07.293Z,982.6
2022-09-18T13:35:09.851Z,982.6
2022-09-18T13:37:11.472Z,982.6
2022-09-18T13:39:12.631Z,982.8
2022-09-18T13:41:13.552Z,982.6
2022-09-18T13:43:14.826Z,982.6
2022-09-18T13:45:16.448Z,982.6
2022-09-18T13:47:18.273Z,982.7
2022-09-18T13:49:20.007Z,982.7
2022-09-18T13:51:21.593Z,982.6
2022-09-18T13:53:23.449Z,982.6
2022-09-18T13:55:25.105Z,982.5
2022-09-18T13:57:27.259Z,982.5
2022-09-18T13:59:28.722Z,982.5
2022-09-18T14:01:29.729Z,982.5
2022-09-18T14:03:31.334Z,982.4
2022-09-18T14:05:32.751Z,982.4
2022-09-18T14:07:33.644Z,982.4
2022-09-18T14:09:36.053Z,982.4
2022-09-18T14:11:37.615Z,982.3
2022-09-18T14:13:39.511Z,982.3
2022-09-18T14:15:41.293Z,982.4
2022-09-18T14:17:43.126Z,982.4
2022-09-18T14:19:44.529Z,982.4
2022-09-18T14:21:45.995Z,982.4
2022-09-18T14:23:46.971Z,982.4
2022-09-18T14:25:48.663Z,982.4
2022-09-18T14:27:50.497Z,982.4
2022-09-18T14:29:51.698Z,982.4
2022-09-18T14:31:53.386Z,982.5
2022-09-18T14:33:54.970Z,982.4
2022-09-18T14:35:56.875Z,982.4
2022-09-18T14:37:58.231Z,982.3
2022-09-18T14:39:59.566Z,982.3
2022-09-18T14:42:00.998Z,982.3
2022-09-18T14:44:02.063Z,982.2
2022-09-18T14:46:03.647Z,982.3
2022-09-18T14:48:05.403Z,982.3
2022-09-18T14:50:07.222Z,982.3
2022-09-18T14:52:08.198Z,982.3
2022-09-18T14:54:10.005Z,982.3
2022-09-18T14:56:11.769Z,982.3
2022-09-18T14:58:12.934Z,982.2
2022-09-18T15:00:14.639Z,982.3
2022-09-18T15:02:16.020Z,982.2
2022-09-18T15:04:17.180Z,982.3
2022-09-18T15:06:18.593Z,982.2
2022-09-18T15:08:22.520Z,982.2
2022-09-18T15:10:21.386Z,982.3
2022-09-18T15:12:22.490Z,982.2
2022-09-18T15:14:24.096Z,982.2
2022-09-18T15:16:25.985Z,982.2
2022-09-18T15:18:27.118Z,982.2
2022-09-18T15:20:28.174Z,982.1
2022-09-18T15:22:29.242Z,982.1
2022-09-18T15:24:30.483Z,982.1
2022-09-18T15:26:32.202Z,982
2022-09-18T15:28:33.621Z,982
2022-09-18T15:30:35.303Z,982.1
2022-09-18T15:32:38.374Z,982
2022-09-18T15:34:37.841Z,982.1
2022-09-18T15:36:39.572Z,982
2022-09-18T15:38:41.379Z,982
2022-09-18T15:40:42.507Z,982.1
2022-09-18T15:42:43.520Z,982
2022-09-18T15:44:45.219Z,982
2022-09-18T15:48:48.746Z,982
2022-09-18T15:50:49.743Z,981.9
2022-09-18T15:52:50.869Z,981.9
2022-09-18T15:54:52.005Z,981.9
2022-09-18T15:56:53.671Z,981.9
2022-09-18T15:58:55.580Z,981.9
2022-09-18T16:00:56.883Z,981.9
2022-09-18T16:02:58.610Z,981.9
2022-09-18T16:04:59.850Z,981.9
2022-09-18T16:07:01.258Z,981.9
2022-09-18T16:09:02.919Z,981.9
2022-09-18T16:11:04.587Z,981.9
2022-09-18T16:13:06.147Z,981.9
2022-09-18T16:15:07.746Z,981.8
2022-09-18T16:17:09.209Z,981.9
2022-09-18T16:19:10.802Z,981.8
2022-09-18T16:21:12.125Z,981.8
2022-09-18T16:23:13.885Z,981.8
2022-09-18T16:25:15.362Z,981.8
2022-09-18T16:27:17.125Z,981.8
2022-09-18T16:29:18.597Z,981.7
2022-09-18T16:31:19.982Z,981.7
2022-09-18T16:33:21.408Z,981.7
2022-09-18T16:35:23.252Z,981.7
2022-09-18T16:37:25.024Z,981.7
2022-09-18T16:39:26.166Z,981.5
2022-09-18T16:41:27.744Z,981.6
2022-09-18T16:43:29.446Z,981.6
2022-09-18T16:47:32.389Z,981.5
2022-09-18T16:49:33.552Z,981.5
2022-09-18T16:51:35.150Z,981.5
2022-09-18T16:53:36.149Z,981.5
2022-09-18T16:55:37.117Z,981.5
2022-09-18T16:57:38.792Z,981.4
2022-09-18T16:59:39.813Z,981.4
2022-09-18T17:02:00.301Z,981.3
2022-09-18T17:03:42.772Z,981.5
2022-09-18T17:05:44.419Z,981.5
2022-09-18T17:07:45.500Z,981.5
2022-09-18T17:09:47.269Z,981.5
2022-09-18T17:11:48.539Z,981.5
2022-09-18T17:13:50.000Z,981.5
2022-09-18T17:15:51.568Z,981.5
2022-09-18T17:17:52.618Z,981.5
2022-09-18T17:19:53.807Z,981.5
2022-09-18T17:21:55.364Z,981.5
2022-09-18T17:23:57.335Z,981.5
2022-09-18T17:25:58.989Z,981.6
2022-09-18T17:30:01.457Z,981.6
2022-09-18T17:32:02.624Z,981.6
2022-09-18T17:34:03.664Z,981.6
2022-09-18T17:36:05.231Z,981.7
2022-09-18T17:38:06.597Z,981.7
2022-09-18T17:40:07.794Z,981.7
2022-09-18T17:42:09.490Z,981.7
2022-09-18T17:44:10.841Z,981.7
2022-09-18T17:46:12.223Z,981.7
2022-09-18T17:48:13.304Z,981.7
2022-09-18T17:50:14.468Z,981.7
2022-09-18T17:52:15.406Z,981.7
2022-09-18T17:56:18.250Z,981.7
2022-09-18T17:58:19.379Z,981.8
2022-09-18T18:00:20.949Z,981.8
2022-09-18T18:02:21.906Z,981.8
2022-09-18T18:06:25.095Z,981.8
2022-09-18T18:08:26.659Z,981.8
2022-09-18T18:12:29.718Z,981.9
2022-09-18T18:13:13.531Z,981.8
2022-09-18T18:17:16.389Z,981.9
2022-09-18T18:19:17.767Z,981.9
2022-09-18T18:21:19.519Z,981.9
2022-09-18T18:23:21.368Z,982
2022-09-18T18:25:22.579Z,981.9
2022-09-18T18:27:23.959Z,981.9
2022-09-18T18:29:25.606Z,981.9
2022-09-18T18:31:27.388Z,981.9
2022-09-18T18:33:28.779Z,981.9
2022-09-18T18:35:30.141Z,981.9
2022-09-18T18:37:31.602Z,981.9
2022-09-18T18:39:32.601Z,981.9
2022-09-18T18:41:34.110Z,981.9
2022-09-18T18:43:35.762Z,982
2022-09-18T18:45:37.649Z,981.8
2022-09-18T18:47:39.418Z,981.9
2022-09-18T18:49:41.028Z,981.8
2022-09-18T18:51:42.229Z,981.9
2022-09-18T18:53:43.229Z,981.9
2022-09-18T18:55:48.295Z,981.9
2022-09-18T18:57:46.509Z,981.9
2022-09-18T18:59:48.018Z,981.9
2022-09-18T19:01:49.515Z,981.9
2022-09-18T19:05:52.195Z,981.8
2022-09-18T19:07:53.227Z,981.8
2022-09-18T19:09:54.718Z,981.8
2022-09-18T19:11:55.842Z,981.8
2022-09-18T19:13:56.939Z,981.7
2022-09-18T19:15:58.028Z,981.8
2022-09-18T19:17:59.958Z,981.7
2022-09-18T19:20:01.521Z,981.7
2022-09-18T19:22:03.037Z,981.6
2022-09-18T19:24:04.636Z,981.7
2022-09-18T19:26:06.080Z,981.6
2022-09-18T19:28:07.891Z,981.7
2022-09-18T19:30:09.201Z,981.7
2022-09-18T19:32:10.190Z,981.6
2022-09-18T19:34:12.066Z,981.6
2022-09-18T19:36:14.005Z,981.7
2022-09-18T19:38:15.725Z,981.7
2022-09-18T19:40:16.958Z,981.7
2022-09-18T19:42:18.400Z,981.6
2022-09-18T19:44:19.585Z,981.6
2022-09-18T19:46:20.660Z,981.6
2022-09-18T19:48:21.699Z,981.6
2022-09-18T19:50:23.069Z,981.5
2022-09-18T19:52:24.129Z,981.6
2022-09-18T19:54:25.250Z,981.6
2022-09-18T19:56:41.964Z,981.6
2022-09-18T19:58:27.862Z,981.6
2022-09-18T20:00:29.157Z,981.6
2022-09-18T20:02:30.764Z,981.6
2022-09-18T20:04:32.178Z,981.7
2022-09-18T20:06:33.439Z,981.7
2022-09-18T20:10:36.056Z,981.6
2022-09-18T20:12:37.156Z,981.6
2022-09-18T20:14:38.300Z,981.7
2022-09-18T20:16:40.011Z,981.6
2022-09-18T20:18:41.155Z,981.7
2022-09-18T20:20:42.693Z,981.6
2022-09-18T20:24:45.712Z,981.6
2022-09-18T20:26:47.377Z,981.7
2022-09-18T20:30:50.116Z,981.7
2022-09-18T20:32:51.119Z,981.7
2022-09-18T20:34:52.629Z,981.6
2022-09-18T20:36:53.800Z,981.7
2022-09-18T20:38:55.536Z,981.7
2022-09-18T20:40:57.047Z,981.7
2022-09-18T20:42:58.139Z,981.9
2022-09-18T20:44:59.142Z,981.9
2022-09-18T20:47:01.056Z,981.7
2022-09-18T20:49:02.984Z,981.9
2022-09-18T20:51:04.628Z,981.9
2022-09-18T20:53:05.771Z,981.8
2022-09-18T20:55:07.143Z,982.3
2022-09-18T20:57:08.151Z,982.4
2022-09-18T20:59:09.916Z,982.4
2022-09-18T21:01:10.932Z,982.6
2022-09-18T21:03:12.223Z,982.5
2022-09-18T21:05:13.755Z,982.5
2022-09-18T21:07:23.420Z,982.5
2022-09-18T21:09:16.255Z,982.6
2022-09-18T21:11:17.904Z,982.6
2022-09-18T21:13:19.258Z,982.6
2022-09-18T21:15:20.721Z,982.7
2022-09-18T21:17:22.483Z,982.7
2022-09-18T21:19:23.854Z,982.7
2022-09-18T21:21:25.586Z,982.7
2022-09-18T21:23:26.653Z,982.7
2022-09-18T21:25:27.862Z,982.6
2022-09-18T21:29:31.004Z,982.6
2022-09-18T21:31:32.953Z,982.6
2022-09-18T21:33:33.940Z,982.6
2022-09-18T21:35:35.845Z,982.6
2022-09-18T21:37:37.548Z,982.6
2022-09-18T21:39:38.956Z,982.6
2022-09-18T21:41:40.259Z,982.6
2022-09-18T21:43:41.733Z,982.5
2022-09-18T21:45:43.139Z,982.4
2022-09-18T21:47:44.356Z,982.4
2022-09-18T21:49:46.165Z,982.4
2022-09-18T21:51:47.593Z,982.6
2022-09-18T21:53:48.912Z,982.5
2022-09-18T21:55:50.491Z,982.5
2022-09-18T21:57:52.049Z,982.5
2022-09-18T21:59:53.139Z,982.5
2022-09-18T22:01:55.203Z,982.4
2022-09-18T22:03:56.089Z,982.4
2022-09-18T22:05:57.953Z,982.2
2022-09-18T22:07:59.269Z,982.3
2022-09-18T22:10:00.524Z,982.3
2022-09-18T22:12:02.348Z,982.2
2022-09-18T22:14:03.700Z,982.4
2022-09-18T22:16:05.462Z,982.5
2022-09-18T22:18:06.628Z,982.4
2022-09-18T22:20:08.068Z,982.3
2022-09-18T22:22:09.914Z,982.3
2022-09-18T22:24:11.085Z,982.3
2022-09-18T22:26:12.856Z,982.4
2022-09-18T22:28:14.096Z,982.4
2022-09-18T22:30:15.110Z,982.4
2022-09-18T22:32:16.263Z,982.5
2022-09-18T22:34:18.180Z,982.5
2022-09-18T22:38:20.784Z,982.7
2022-09-18T22:40:22.536Z,982.7
2022-09-18T22:42:23.972Z,982.7
2022-09-18T22:44:25.896Z,982.7
2022-09-18T22:46:27.015Z,982.8
2022-09-18T22:48:28.280Z,982.7
2022-09-18T22:50:29.651Z,982.6
2022-09-18T22:52:30.737Z,982.7
2022-09-18T22:54:31.983Z,982.8
2022-09-18T22:56:34.114Z,982.8
2022-09-18T22:58:34.878Z,982.8
2022-09-18T23:00:36.486Z,982.8
2022-09-18T23:02:37.588Z,982.8
2022-09-18T23:04:39.456Z,982.8
2022-09-18T23:06:40.751Z,982.8
2022-09-18T23:08:42.131Z,982.9
2022-09-18T23:10:43.371Z,982.9
2022-09-18T23:12:45.001Z,982.8
2022-09-18T23:14:46.127Z,983
2022-09-18T23:16:47.548Z,982.9
2022-09-18T23:18:48.921Z,982.9
2022-09-18T23:20:50.662Z,982.9
2022-09-18T23:22:51.997Z,982.8
2022-09-18T23:26:54.932Z,982.8
2022-09-18T23:28:56.134Z,982.9
2022-09-18T23:30:57.360Z,982.9
2022-09-18T23:32:59.094Z,982.8
2022-09-18T23:35:00.454Z,982.8
2022-09-18T23:37:02.239Z,982.9
2022-09-18T23:39:03.259Z,982.9
2022-09-18T23:43:06.554Z,982.9
2022-09-18T23:45:07.899Z,983
2022-09-18T23:47:12.031Z,983
2022-09-18T23:49:10.704Z,983
2022-09-18T23:51:11.954Z,983.1
2022-09-18T23:53:13.169Z,983.1
2022-09-18T23:55:14.590Z,983.1
2022-09-18T23:57:15.865Z,983
2022-09-18T23:59:22.014Z,983
